createdAt,value
2019-04-11T00:01:35.042Z,101245.94
2019-04-11T00:03:53.565Z,101243.49
2019-04-11T00:06:23.521Z,101250.28
2019-04-11T00:08:52.840Z,101249.38
2019-04-11T00:11:22.304Z,101249.27
2019-04-11T00:13:51.698Z,101257.55
2019-04-11T00:16:21.446Z,101251.13
2019-04-11T00:18:51.391Z,101260.16
2019-04-11T00:21:20.789Z,101260.42
2019-04-11T00:23:50.380Z,101262.95
2019-04-11T00:26:20.171Z,101260.69
2019-04-11T00:28:50.379Z,101264.50
2019-04-11T00:31:20.904Z,101259.31
2019-04-11T00:33:50.827Z,101265.06
2019-04-11T00:36:20.207Z,101269.64
2019-04-11T00:38:50.031Z,101261.70
2019-04-11T00:41:19.302Z,101267.75
2019-04-11T00:43:48.552Z,101269.36
2019-04-11T00:46:18.342Z,101264.23
2019-04-11T00:48:48.098Z,101267.73
2019-04-11T00:51:18.680Z,101270.69
2019-04-11T00:53:48.169Z,101272.53
2019-04-11T00:56:17.865Z,101265.65
2019-04-11T00:58:47.223Z,101273.02
2019-04-11T01:01:18.384Z,101271.44
2019-04-11T01:03:47.595Z,101270.60
2019-04-11T01:06:18.223Z,101269.88
2019-04-11T01:08:48.186Z,101275.22
2019-04-11T01:11:17.537Z,101267.71
2019-04-11T01:13:52.386Z,101274.92
2019-04-11T01:16:45.099Z,101278.39
2019-04-11T01:19:14.420Z,101281.06
2019-04-11T01:21:44.516Z,101287.80
2019-04-11T01:24:15.555Z,101280.19
2019-04-11T01:26:45.506Z,101286.05
2019-04-11T01:29:15.448Z,101285.68
2019-04-11T01:31:54.184Z,101285.31
2019-04-11T01:34:24.496Z,101286.16
2019-04-11T01:36:53.905Z,101287.70
2019-04-11T01:39:45.372Z,101287.62
2019-04-11T01:42:16.133Z,101286.08
2019-04-11T01:44:47.452Z,101289.19
2019-04-11T01:47:39.347Z,101291.63
2019-04-11T01:50:08.920Z,101290.04
2019-04-11T01:52:38.322Z,101291.86
2019-04-11T01:55:08.233Z,101291.23
2019-04-11T01:57:38.117Z,101292.67
2019-04-11T02:00:08.054Z,101293.59
2019-04-11T02:02:52.914Z,101296.09
2019-04-11T02:05:29.819Z,101291.80
2019-04-11T02:07:59.180Z,101292.14
2019-04-11T02:10:28.758Z,101299.09
2019-04-11T02:12:58.221Z,101302.81
2019-04-11T02:15:28.307Z,101297.41
2019-04-11T02:17:57.824Z,101297.35
2019-04-11T02:20:27.174Z,101301.24
2019-04-11T02:23:13.308Z,101304.97
2019-04-11T02:26:05.083Z,101308.60
2019-04-11T02:28:34.925Z,101309.80
2019-04-11T02:31:05.556Z,101314.00
2019-04-11T02:33:37.085Z,101309.34
2019-04-11T02:36:07.926Z,101316.08
2019-04-11T02:38:39.082Z,101318.02
2019-04-11T02:41:10.613Z,101323.28
2019-04-11T02:43:42.712Z,101320.66
2019-04-11T02:46:20.425Z,101321.42
2019-04-11T02:48:42.716Z,101325.02
2019-04-11T02:51:12.534Z,101319.28
2019-04-11T02:53:43.235Z,101320.59
2019-04-11T02:56:13.065Z,101327.03
2019-04-11T02:58:44.000Z,101327.18
2019-04-11T03:01:13.574Z,101320.38
2019-04-11T03:03:42.943Z,101328.03
2019-04-11T03:06:12.245Z,101312.15
2019-04-11T03:08:43.097Z,101330.19
2019-04-11T03:11:14.201Z,101332.22
2019-04-11T03:13:44.362Z,101334.84
2019-04-11T03:16:29.608Z,101333.91
2019-04-11T03:18:59.224Z,101337.38
2019-04-11T03:21:20.511Z,101329.13
2019-04-11T03:23:49.200Z,101333.30
2019-04-11T03:26:18.969Z,101326.16
2019-04-11T03:28:50.238Z,101338.70
2019-04-11T03:32:04.735Z,101342.41
2019-04-11T03:34:44.559Z,101348.89
2019-04-11T03:37:10.058Z,101338.84
2019-04-11T03:39:15.321Z,101342.22
2019-04-11T03:41:42.736Z,101344.81
2019-04-11T03:44:03.940Z,101344.95
2019-04-11T03:46:42.133Z,101345.41
2019-04-11T03:49:09.336Z,101349.83
2019-04-11T03:51:29.675Z,101354.00
2019-04-11T03:53:59.275Z,101350.63
2019-04-11T03:56:30.432Z,101347.67
2019-04-11T03:59:01.298Z,101352.70
2019-04-11T04:01:31.957Z,101353.55
2019-04-11T04:04:02.815Z,101349.27
2019-04-11T04:06:33.527Z,101350.81
2019-04-11T04:09:03.707Z,101359.17
2019-04-11T04:11:34.711Z,101361.70
2019-04-11T04:14:24.295Z,101364.91
2019-04-11T04:17:03.763Z,101364.06
2019-04-11T04:19:45.645Z,101363.36
2019-04-11T04:22:31.440Z,101358.83
2019-04-11T04:25:01.485Z,101358.83
2019-04-11T04:27:33.089Z,101375.54
2019-04-11T04:30:05.362Z,101376.74
2019-04-11T04:32:36.079Z,101379.73
2019-04-11T04:35:10.164Z,101381.75
2019-04-11T04:37:38.634Z,101387.85
2019-04-11T04:40:24.109Z,101384.63
2019-04-11T04:42:45.812Z,101384.63
2019-04-11T04:45:12.371Z,101391.45
2019-04-11T04:47:47.813Z,101385.34
2019-04-11T04:50:13.338Z,101393.72
2019-04-11T04:52:44.844Z,101400.67
2019-04-11T04:55:17.258Z,101400.67
2019-04-11T04:57:46.660Z,101394.20
2019-04-11T05:00:18.920Z,101403.78
2019-04-11T05:02:50.338Z,101399.70
2019-04-11T05:05:19.713Z,101409.97
2019-04-11T05:07:49.790Z,101410.44
2019-04-11T05:10:20.029Z,101412.94
2019-04-11T05:12:49.559Z,101408.98
2019-04-11T05:15:18.853Z,101408.75
2019-04-11T05:17:49.186Z,101421.66
2019-04-11T05:20:19.713Z,101423.08
2019-04-11T05:22:49.300Z,101425.89
2019-04-11T05:25:20.099Z,101419.20
2019-04-11T05:27:49.706Z,101426.34
2019-04-11T05:30:19.073Z,101424.31
2019-04-11T05:32:49.339Z,101419.98
2019-04-11T05:35:18.599Z,101431.34
2019-04-11T05:37:47.873Z,101431.20
2019-04-11T05:40:17.195Z,101433.20
2019-04-11T05:42:51.030Z,101431.11
2019-04-11T05:45:21.571Z,101432.19
2019-04-11T05:47:53.545Z,101432.89
2019-04-11T05:50:26.275Z,101427.59
2019-04-11T05:52:56.738Z,101432.70
2019-04-11T05:55:27.996Z,101437.70
2019-04-11T05:57:58.709Z,101430.69
2019-04-11T06:00:53.282Z,101435.80
2019-04-11T06:03:23.907Z,101442.95
2019-04-11T06:06:14.661Z,101444.32
2019-04-11T06:08:44.225Z,101442.57
2019-04-11T06:11:39.087Z,101447.01
2019-04-11T06:14:33.344Z,101451.22
2019-04-11T06:17:05.738Z,101453.42
2019-04-11T06:20:06.185Z,101456.93
2019-04-11T06:22:38.142Z,101461.42
2019-04-11T06:25:30.967Z,101457.13
2019-04-11T06:28:09.506Z,101459.45
2019-04-11T06:31:06.186Z,101465.45
2019-04-11T06:33:38.113Z,101468.83
2019-04-11T06:36:26.748Z,101471.48
2019-04-11T06:39:15.485Z,101472.27
2019-04-11T06:42:04.208Z,101477.13
2019-04-11T06:44:50.744Z,101477.00
2019-04-11T06:47:43.164Z,101482.70
2019-04-11T06:50:23.621Z,101490.89
2019-04-11T06:52:53.196Z,101490.39
2019-04-11T06:55:40.291Z,101484.98
2019-04-11T06:58:14.981Z,101489.32
2019-04-11T07:00:47.659Z,101488.33
2019-04-11T07:03:25.513Z,101493.25
2019-04-11T07:05:51.733Z,101492.61
2019-04-11T07:08:23.954Z,101489.62
2019-04-11T07:10:58.855Z,101490.02
2019-04-11T07:13:41.276Z,101498.20
2019-04-11T07:16:11.296Z,101492.73
2019-04-11T07:19:02.903Z,101496.39
2019-04-11T07:21:35.468Z,101502.23
2019-04-11T07:24:22.405Z,101500.91
2019-04-11T07:27:07.368Z,101506.23
2019-04-11T07:30:05.255Z,101510.78
2019-04-11T07:32:34.619Z,101501.98
2019-04-11T07:35:30.207Z,101504.89
2019-04-11T07:38:01.076Z,101499.33
2019-04-11T07:40:47.710Z,101504.63
2019-04-11T07:43:29.197Z,101510.83
2019-04-11T07:46:25.113Z,101509.06
2019-04-11T07:48:57.174Z,101507.38
2019-04-11T07:51:34.344Z,101510.66
2019-04-11T07:54:07.027Z,101506.93
2019-04-11T07:56:55.078Z,101508.72
2019-04-11T07:59:39.699Z,101514.89
2019-04-11T08:02:26.885Z,101512.95
2019-04-11T08:05:09.792Z,101516.14
2019-04-11T08:07:51.832Z,101515.30
2019-04-11T08:10:27.693Z,101514.82
2019-04-11T08:12:58.247Z,101518.09
2019-04-11T08:15:46.018Z,101516.52
2019-04-11T08:18:24.435Z,101514.89
2019-04-11T08:21:15.726Z,101517.73
2019-04-11T08:23:47.908Z,101515.56
2019-04-11T08:26:48.429Z,101518.37
2019-04-11T08:29:20.047Z,101522.91
2019-04-11T08:32:09.497Z,101517.59
2019-04-11T08:34:45.936Z,101525.28
2019-04-11T08:37:33.647Z,101527.97
2019-04-11T08:40:04.060Z,101520.30
2019-04-11T08:43:07.314Z,101524.30
2019-04-11T08:45:38.642Z,101524.63
2019-04-11T08:48:08.828Z,101521.29
2019-04-11T08:50:42.822Z,101524.95
2019-04-11T08:53:29.456Z,101523.42
2019-04-11T08:56:02.594Z,101522.88
2019-04-11T08:58:49.645Z,101531.19
2019-04-11T09:01:20.191Z,101526.33
2019-04-11T09:04:13.687Z,101527.81
2019-04-11T09:06:43.054Z,101525.80
2019-04-11T09:09:38.060Z,101529.94
2019-04-11T09:12:10.490Z,101527.02
2019-04-11T09:15:08.600Z,101524.31
2019-04-11T09:17:58.881Z,101524.62
2019-04-11T09:20:38.652Z,101524.31
2019-04-11T09:23:09.788Z,101527.12
2019-04-11T09:25:56.624Z,101525.79
2019-04-11T09:28:44.048Z,101525.18
2019-04-11T09:31:41.677Z,101530.83
2019-04-11T09:34:25.948Z,101531.66
2019-04-11T09:37:14.436Z,101525.94
2019-04-11T09:39:59.945Z,101529.83
2019-04-11T09:43:07.185Z,101526.61
2019-04-11T09:46:06.243Z,101527.45
2019-04-11T09:48:44.359Z,101525.95
2019-04-11T09:51:45.994Z,101531.45
2019-04-11T09:54:33.899Z,101524.63
2019-04-11T09:57:22.921Z,101522.42
2019-04-11T10:00:26.703Z,101517.08
2019-04-11T10:03:13.217Z,101516.94
2019-04-11T10:06:05.718Z,101520.70
2019-04-11T10:08:39.741Z,101519.50
2019-04-11T10:11:27.892Z,101525.48
2019-04-11T10:14:01.544Z,101524.03
2019-04-11T10:16:48.706Z,101522.63
2019-04-11T10:19:36.028Z,101527.72
2019-04-11T10:22:23.704Z,101528.39
2019-04-11T10:25:15.001Z,101521.94
2019-04-11T10:28:03.185Z,101515.14
2019-04-11T10:31:00.416Z,101512.02
2019-04-11T10:33:49.009Z,101521.55
2019-04-11T10:36:25.829Z,101523.59
2019-04-11T10:39:29.194Z,101511.61
2019-04-11T10:42:02.193Z,101511.21
2019-04-11T10:44:54.118Z,101514.74
2019-04-11T10:47:25.137Z,101508.00
2019-04-11T10:50:28.486Z,101505.22
2019-04-11T10:53:02.762Z,101509.58
2019-04-11T10:55:57.866Z,101506.12
2019-04-11T10:58:33.708Z,101513.38
2019-04-11T11:01:28.362Z,101506.22
2019-04-11T11:04:11.612Z,101510.78
2019-04-11T11:06:41.980Z,101521.39
2019-04-11T11:09:22.202Z,101515.25
2019-04-11T11:12:00.898Z,101519.56
2019-04-11T11:14:53.253Z,101520.52
2019-04-11T11:17:54.522Z,101517.91
2019-04-11T11:20:28.825Z,101527.12
2019-04-11T11:23:29.057Z,101526.59
2019-04-11T11:26:07.059Z,101532.35
2019-04-11T11:28:41.225Z,101534.06
2019-04-11T11:31:28.037Z,101530.68
2019-04-11T11:33:58.822Z,101533.17
2019-04-11T11:37:03.412Z,101536.23
2019-04-11T11:39:53.247Z,101537.65
2019-04-11T11:42:56.639Z,101540.22
2019-04-11T11:45:49.140Z,101548.50
2019-04-11T11:48:31.501Z,101549.10
2019-04-11T11:51:03.394Z,101543.84
2019-04-11T11:53:45.346Z,101545.97
2019-04-11T11:56:15.851Z,101540.35
2019-04-11T11:59:23.062Z,101536.02
2019-04-11T12:01:55.858Z,101534.71
2019-04-11T12:04:42.704Z,101532.82
2019-04-11T12:07:14.733Z,101534.06
2019-04-11T12:10:13.250Z,101526.45
2019-04-11T12:13:05.881Z,101535.85
2019-04-11T12:15:51.123Z,101520.55
2019-04-11T12:18:43.754Z,101529.22
2019-04-11T12:21:16.335Z,101526.88
2019-04-11T12:24:06.541Z,101525.14
2019-04-11T12:26:37.871Z,101524.33
2019-04-11T12:29:28.692Z,101527.19
2019-04-11T12:31:59.829Z,101530.84
2019-04-11T12:34:36.927Z,101516.54
2019-04-11T12:37:10.583Z,101519.91
2019-04-11T12:39:57.260Z,101521.09
2019-04-11T12:42:30.064Z,101520.17
2019-04-11T12:45:30.490Z,101525.59
2019-04-11T12:48:01.225Z,101523.51
2019-04-11T12:50:47.828Z,101520.07
2019-04-11T12:53:19.163Z,101528.99
2019-04-11T12:55:57.773Z,101520.44
2019-04-11T12:58:33.984Z,101515.19
2019-04-11T13:01:20.994Z,101523.92
2019-04-11T13:04:12.081Z,101508.66
2019-04-11T13:07:03.431Z,101508.35
2019-04-11T13:09:43.838Z,101508.19
2019-04-11T13:12:19.507Z,101508.98
2019-04-11T13:14:59.751Z,101508.31
2019-04-11T13:17:32.553Z,101510.96
2019-04-11T13:20:19.384Z,101506.95
2019-04-11T13:22:50.113Z,101511.98
2019-04-11T13:25:40.848Z,101508.82
2019-04-11T13:28:10.129Z,101507.87
2019-04-11T13:31:13.298Z,101511.02
2019-04-11T13:33:42.539Z,101507.99
2019-04-11T13:36:26.599Z,101504.92
2019-04-11T13:38:55.911Z,101509.58
2019-04-11T13:41:47.318Z,101502.69
2019-04-11T13:44:22.787Z,101509.95
2019-04-11T13:47:20.394Z,101509.92
2019-04-11T13:49:58.146Z,101508.02
2019-04-11T13:52:46.368Z,101507.61
2019-04-11T13:55:34.058Z,101499.06
2019-04-11T13:58:20.732Z,101493.95
2019-04-11T14:00:54.012Z,101499.75
2019-04-11T14:03:44.807Z,101486.91
2019-04-11T14:06:25.507Z,101496.52
2019-04-11T14:09:09.310Z,101484.73
2019-04-11T14:11:42.443Z,101483.02
2019-04-11T14:14:17.889Z,101483.36
2019-04-11T14:16:55.184Z,101484.05
2019-04-11T14:19:41.421Z,101489.37
2019-04-11T14:22:13.603Z,101489.70
2019-04-11T14:25:15.109Z,101488.83
2019-04-11T14:27:49.350Z,101491.00
2019-04-11T14:30:36.277Z,101491.41
2019-04-11T14:33:06.044Z,101489.22
2019-04-11T14:35:52.513Z,101481.59
2019-04-11T14:38:23.442Z,101486.66
2019-04-11T14:41:09.794Z,101488.06
2019-04-11T14:43:54.190Z,101481.44
2019-04-11T14:46:55.207Z,101487.69
2019-04-11T14:49:27.046Z,101471.78
2019-04-11T14:52:33.117Z,101487.27
2019-04-11T14:55:03.548Z,101480.06
2019-04-11T14:57:46.905Z,101483.73
2019-04-11T15:00:41.700Z,101485.30
2019-04-11T15:03:28.454Z,101482.86
2019-04-11T15:06:15.367Z,101479.12
2019-04-11T15:08:55.346Z,101485.48
2019-04-11T15:11:49.698Z,101481.59
2019-04-11T15:14:30.818Z,101477.95
2019-04-11T15:17:14.669Z,101477.80
2019-04-11T15:19:47.309Z,101480.91
2019-04-11T15:22:25.705Z,101484.17
2019-04-11T15:24:58.820Z,101481.68
2019-04-11T15:28:07.908Z,101480.80
2019-04-11T15:30:52.862Z,101478.28
2019-04-11T15:33:59.258Z,101481.31
2019-04-11T15:36:28.703Z,101478.02
2019-04-11T15:39:15.590Z,101479.70
2019-04-11T15:41:45.159Z,101483.89
2019-04-11T15:44:45.512Z,101477.89
2019-04-11T15:47:18.720Z,101483.34
2019-04-11T15:50:09.088Z,101489.09
2019-04-11T15:52:41.408Z,101483.98
2019-04-11T15:55:47.910Z,101486.52
2019-04-11T15:58:17.589Z,101490.41
2019-04-11T16:00:54.568Z,101496.73
2019-04-11T16:03:25.285Z,101492.35
2019-04-11T16:06:16.796Z,101500.08
2019-04-11T16:08:52.152Z,101503.78
2019-04-11T16:11:43.473Z,101497.55
2019-04-11T16:14:16.842Z,101494.48
2019-04-11T16:17:13.850Z,101493.47
2019-04-11T16:20:07.317Z,101498.50
2019-04-11T16:23:10.529Z,101506.19
2019-04-11T16:25:42.405Z,101501.69
2019-04-11T16:28:28.960Z,101502.45
2019-04-11T16:30:59.607Z,101499.06
2019-04-11T16:33:46.899Z,101507.86
2019-04-11T16:36:33.573Z,101508.91
2019-04-11T16:39:21.765Z,101514.00
2019-04-11T16:41:56.494Z,101515.69
2019-04-11T16:44:56.389Z,101516.44
2019-04-11T16:47:44.652Z,101520.25
2019-04-11T16:50:14.133Z,101521.78
2019-04-11T16:52:43.446Z,101527.98
2019-04-11T16:55:12.928Z,101527.52
2019-04-11T16:57:44.323Z,101526.72
2019-04-11T17:00:14.725Z,101530.57
2019-04-11T17:02:44.068Z,101531.11
2019-04-11T17:05:13.489Z,101530.72
2019-04-11T17:08:13.948Z,101529.50
2019-04-11T17:11:05.611Z,101528.50
2019-04-11T17:13:34.917Z,101528.31
2019-04-11T17:16:05.637Z,101528.81
2019-04-11T17:18:35.098Z,101536.33
2019-04-11T17:21:07.824Z,101532.94
2019-04-11T17:23:35.595Z,101538.31
2019-04-11T17:26:06.225Z,101538.96
2019-04-11T17:28:36.141Z,101538.34
2019-04-11T17:31:05.537Z,101540.27
2019-04-11T17:33:35.062Z,101545.76
2019-04-11T17:36:04.469Z,101543.74
2019-04-11T17:38:36.888Z,101545.79
2019-04-11T17:41:04.991Z,101545.47
2019-04-11T17:43:34.298Z,101546.88
2019-04-11T17:46:03.651Z,101543.69
2019-04-11T17:48:33.055Z,101540.71
2019-04-11T17:51:04.835Z,101555.08
2019-04-11T17:53:33.610Z,101560.91
2019-04-11T17:56:02.816Z,101555.91
2019-04-11T17:58:32.572Z,101561.25
2019-04-11T18:01:05.118Z,101558.11
2019-04-11T18:03:33.577Z,101561.45
2019-04-11T18:06:02.841Z,101562.61
2019-04-11T18:08:32.318Z,101564.94
2019-04-11T18:11:01.663Z,101558.27
2019-04-11T18:13:31.727Z,101567.25
2019-04-11T18:16:01.896Z,101563.94
2019-04-11T18:18:34.863Z,101568.09
2019-04-11T18:21:02.423Z,101575.75
2019-04-11T18:23:31.864Z,101579.07
2019-04-11T18:26:01.242Z,101575.40
2019-04-11T18:28:30.957Z,101582.24
2019-04-11T18:31:00.324Z,101582.56
2019-04-11T18:33:31.788Z,101581.89
2019-04-11T18:36:02.260Z,101583.05
2019-04-11T18:38:32.687Z,101587.38
2019-04-11T18:41:02.042Z,101584.22
2019-04-11T18:43:32.029Z,101590.85
2019-04-11T18:46:03.121Z,101593.86
2019-04-11T18:48:32.581Z,101589.00
2019-04-11T18:51:02.041Z,101596.15
2019-04-11T18:53:31.513Z,101593.81
2019-04-11T18:56:01.727Z,101594.30
2019-04-11T18:58:33.713Z,101594.62
2019-04-11T19:01:02.344Z,101594.09
2019-04-11T19:03:36.354Z,101602.70
2019-04-11T19:06:03.061Z,101595.03
2019-04-11T19:08:32.381Z,101592.02
2019-04-11T19:11:02.013Z,101598.63
2019-04-11T19:13:31.441Z,101599.08
2019-04-11T19:16:01.058Z,101601.92
2019-04-11T19:18:30.528Z,101599.92
2019-04-11T19:20:59.828Z,101608.74
2019-04-11T19:23:29.155Z,101607.98
2019-04-11T19:25:58.579Z,101606.65
2019-04-11T19:28:27.948Z,101607.59
2019-04-11T19:30:57.678Z,101609.41
2019-04-11T19:33:27.141Z,101607.55
2019-04-11T19:35:56.528Z,101604.66
2019-04-11T19:38:27.974Z,101604.79
2019-04-11T19:40:57.350Z,101605.91
2019-04-11T19:43:27.098Z,101598.77
2019-04-11T19:45:58.688Z,101598.23
2019-04-11T19:48:27.661Z,101600.37
2019-04-11T19:50:58.829Z,101603.51
2019-04-11T19:53:28.163Z,101610.63
2019-04-11T19:56:09.305Z,101601.31
2019-04-11T19:58:39.293Z,101612.40
2019-04-11T20:01:08.862Z,101608.70
2019-04-11T20:03:38.317Z,101609.34
2019-04-11T20:06:07.711Z,101605.30
2019-04-11T20:08:37.643Z,101602.59
2019-04-11T20:11:08.629Z,101603.91
2019-04-11T20:13:38.075Z,101604.70
2019-04-11T20:16:07.391Z,101600.05
2019-04-11T20:18:36.665Z,101606.19
2019-04-11T20:21:07.590Z,101604.64
2019-04-11T20:23:41.499Z,101607.28
2019-04-11T20:26:08.469Z,101608.06
2019-04-11T20:28:37.909Z,101617.53
2019-04-11T20:31:07.218Z,101616.55
2019-04-11T20:33:36.606Z,101613.08
2019-04-11T20:36:08.227Z,101609.14
2019-04-11T20:38:37.167Z,101612.83
2019-04-11T20:41:06.589Z,101607.83
2019-04-11T20:43:35.909Z,101605.66
2019-04-11T20:46:05.769Z,101604.69
2019-04-11T20:48:35.341Z,101606.37
2019-04-11T20:51:04.769Z,101602.52
2019-04-11T20:53:36.704Z,101601.19
2019-04-11T20:56:09.573Z,101609.16
2019-04-11T20:58:36.626Z,101605.66
2019-04-11T21:01:06.155Z,101611.80
2019-04-11T21:03:35.510Z,101614.78
2019-04-11T21:06:05.035Z,101618.95
2019-04-11T21:08:36.640Z,101616.83
2019-04-11T21:11:06.116Z,101624.50
2019-04-11T21:13:38.129Z,101622.50
2019-04-11T21:16:06.410Z,101617.31
2019-04-11T21:18:35.654Z,101625.11
2019-04-11T21:21:05.203Z,101628.77
2019-04-11T21:23:34.468Z,101625.76
2019-04-11T21:26:03.761Z,101630.05
2019-04-11T21:28:33.081Z,101630.03
2019-04-11T21:31:02.545Z,101629.00
2019-04-11T21:33:34.977Z,101634.61
2019-04-11T21:36:03.640Z,101636.91
2019-04-11T21:38:33.089Z,101641.55
2019-04-11T21:41:05.946Z,101634.59
2019-04-11T21:43:35.917Z,101639.91
2019-04-11T21:46:06.794Z,101641.17
2019-04-11T21:48:36.642Z,101649.80
2019-04-11T21:51:05.996Z,101639.77
2019-04-11T21:53:37.132Z,101639.06
2019-04-11T21:56:06.399Z,101641.83
2019-04-11T21:58:36.119Z,101646.16
2019-04-11T22:01:10.270Z,101644.19
2019-04-11T22:03:39.673Z,101645.70
2019-04-11T22:06:09.004Z,101649.88
2019-04-11T22:08:38.373Z,101645.05
2019-04-11T22:11:10.048Z,101645.41
2019-04-11T22:13:40.395Z,101647.52
2019-04-11T22:16:13.146Z,101647.98
2019-04-11T22:18:44.308Z,101642.28
2019-04-11T22:21:15.559Z,101638.22
2019-04-11T22:23:49.033Z,101642.84
2019-04-11T22:26:15.993Z,101645.12
2019-04-11T22:28:45.398Z,101641.98
2019-04-11T22:31:14.890Z,101644.80
2019-04-11T22:33:48.225Z,101645.58
2019-04-11T22:36:18.150Z,101642.91
2019-04-11T22:38:47.733Z,101649.78
2019-04-11T22:41:16.934Z,101648.75
2019-04-11T22:43:46.261Z,101645.53
2019-04-11T22:46:20.481Z,101645.33
2019-04-11T22:48:46.694Z,101647.93
2019-04-11T22:51:16.414Z,101658.95
2019-04-11T22:53:45.833Z,101653.14
2019-04-11T22:56:15.245Z,101650.30
2019-04-11T22:58:44.755Z,101645.77
2019-04-11T23:01:16.531Z,101651.45
2019-04-11T23:03:49.124Z,101649.52
2019-04-11T23:06:18.914Z,101645.59
2019-04-11T23:08:48.980Z,101660.62
2019-04-11T23:11:18.968Z,101657.56
2019-04-11T23:13:48.256Z,101654.19
2019-04-11T23:16:17.651Z,101657.03
2019-04-11T23:18:47.348Z,101661.34
2019-04-11T23:21:16.733Z,101658.69
2019-04-11T23:23:46.089Z,101660.06
2019-04-11T23:26:15.770Z,101656.92
2019-04-11T23:28:46.739Z,101661.39
2019-04-11T23:31:19.735Z,101660.59
2019-04-11T23:33:51.682Z,101661.07
2019-04-11T23:36:21.258Z,101666.33
2019-04-11T23:38:52.618Z,101664.02
2019-04-11T23:41:21.483Z,101660.23
2019-04-11T23:43:50.955Z,101670.37
2019-04-11T23:46:21.447Z,101668.36
2019-04-11T23:48:54.533Z,101666.33
2019-04-11T23:51:25.384Z,101664.00
2019-04-11T23:53:53.467Z,101666.84
2019-04-11T23:56:22.688Z,101668.98
2019-04-11T23:58:52.070Z,101670.95
